ARG1214 SABE-SACO
Flight info
| Callsign | ARG1214 |
|---|---|
| Flight time | N/A |
| Altitude | 36000 |
| Route | ATOVO UW5 TIPLO W5 ASISA |
| Aircraft | B738/H-SDE3L/L |
Departure
| Time | 2026-05-03 21:17 |
|---|---|
| Airport | Aeroparque Jorge Newbery (SABE) |
Arrival
| Time | N/A |
|---|---|
| Airport | Ingeniero Aeronáutico Ambrosio L.V. Taravella International Airport (SACO) |
| Time | Latitude | Longitude | Altitude | Speed | Heading |
|---|---|---|---|---|---|
| 2026-05-03 20:33 | -34.55855 | -58.41335 | 25 ft | 0 kts | 266° |
| 2026-05-03 20:51 | -34.55855 | -58.41333 | 25 ft | 2 kts | 265° |
| 2026-05-03 20:52 | -34.55851 | -58.41291 | 29 ft | 7 kts | 258° |
| 2026-05-03 20:52 | -34.55857 | -58.41235 | 29 ft | 5 kts | 299° |
| 2026-05-03 20:52 | -34.55874 | -58.41206 | 31 ft | 0 kts | 308° |
| 2026-05-03 20:52 | -34.55873 | -58.41208 | 25 ft | 0 kts | 308° |
| 2026-05-03 20:57 | -34.55859 | -58.41251 | 27 ft | 7 kts | 271° |
| 2026-05-03 20:57 | -34.55883 | -58.41292 | 27 ft | 6 kts | 209° |
| 2026-05-03 20:57 | -34.55932 | -58.41272 | 27 ft | 12 kts | 134° |
| 2026-05-03 20:58 | -34.56009 | -58.41151 | 28 ft | 23 kts | 127° |
| 2026-05-03 20:58 | -34.56107 | -58.40995 | 28 ft | 17 kts | 128° |
| 2026-05-03 20:58 | -34.56158 | -58.40919 | 24 ft | 7 kts | 129° |
| 2026-05-03 20:58 | -34.56185 | -58.40873 | 26 ft | 6 kts | 110° |
| 2026-05-03 20:59 | -34.56183 | -58.40848 | 24 ft | 3 kts | 63° |
| 2026-05-03 20:59 | -34.56179 | -58.40810 | 26 ft | 5 kts | 112° |
| 2026-05-03 20:59 | -34.56185 | -58.40798 | 24 ft | 0 kts | 122° |
| 2026-05-03 21:00 | -34.56207 | -58.40758 | 25 ft | 10 kts | 123° |
| 2026-05-03 21:01 | -34.56212 | -58.40748 | 26 ft | 0 kts | 123° |
| 2026-05-03 21:03 | -34.56231 | -58.40713 | 27 ft | 5 kts | 124° |
| 2026-05-03 21:03 | -34.56232 | -58.40711 | 26 ft | 0 kts | 124° |
| 2026-05-03 21:05 | -34.56238 | -58.40701 | 24 ft | 5 kts | 124° |
| 2026-05-03 21:06 | -34.56275 | -58.40636 | 26 ft | 13 kts | 124° |
| 2026-05-03 21:06 | -34.56304 | -58.40584 | 25 ft | 3 kts | 131° |
| 2026-05-03 21:06 | -34.56306 | -58.40582 | 25 ft | 0 kts | 131° |
| 2026-05-03 21:07 | -34.56316 | -58.40567 | 25 ft | 5 kts | 131° |
| 2026-05-03 21:07 | -34.56325 | -58.40556 | 23 ft | 0 kts | 137° |
| 2026-05-03 21:11 | -34.56336 | -58.40545 | 27 ft | 2 kts | 139° |
| 2026-05-03 21:11 | -34.56346 | -58.40534 | 23 ft | 2 kts | 139° |
| 2026-05-03 21:11 | -34.56365 | -58.40514 | 24 ft | 0 kts | 139° |
| 2026-05-03 21:11 | -34.56367 | -58.40512 | 24 ft | 0 kts | 139° |
| 2026-05-03 21:14 | -34.56373 | -58.40505 | 23 ft | 6 kts | 137° |
| 2026-05-03 21:14 | -34.56405 | -58.40470 | 24 ft | 0 kts | 137° |
| 2026-05-03 21:15 | -34.56408 | -58.40467 | 24 ft | 5 kts | 137° |
| 2026-05-03 21:15 | -34.56477 | -58.40390 | 23 ft | 15 kts | 138° |
| 2026-05-03 21:16 | -34.56536 | -58.40389 | 23 ft | 9 kts | 223° |
| 2026-05-03 21:16 | -34.56539 | -58.40467 | 26 ft | 13 kts | 300° |
| 2026-05-03 21:16 | -34.56517 | -58.40507 | 23 ft | 0 kts | 303° |
| 2026-05-03 21:17 | -34.56453 | -58.40626 | 21 ft | 53 kts | 304° |
| 2026-05-03 21:17 | -34.56243 | -58.40999 | 25 ft | 104 kts | 304° |
| 2026-05-03 21:17 | -34.55474 | -58.42325 | 186 ft | 172 kts | 307° |
| 2026-05-03 21:17 | -34.54759 | -58.43528 | 1022 ft | 177 kts | 311° |
| 2026-05-03 21:18 | -34.53818 | -58.44417 | 2032 ft | 172 kts | 344° |
| 2026-05-03 21:18 | -34.52646 | -58.44667 | 3039 ft | 171 kts | 352° |
| 2026-05-03 21:18 | -34.51486 | -58.44704 | 3890 ft | 163 kts | 360° |
| 2026-05-03 21:18 | -34.50385 | -58.44458 | 4542 ft | 163 kts | 15° |
| 2026-05-03 21:19 | -34.49327 | -58.43814 | 4993 ft | 172 kts | 24° |
| 2026-05-03 21:19 | -34.48243 | -58.43058 | 5516 ft | 188 kts | 25° |
| 2026-05-03 21:19 | -34.47039 | -58.42209 | 5868 ft | 215 kts | 26° |
| 2026-05-03 21:19 | -34.45674 | -58.41239 | 6077 ft | 239 kts | 26° |
| 2026-05-03 21:20 | -34.44173 | -58.40169 | 6242 ft | 261 kts | 26° |
| 2026-05-03 21:20 | -34.42534 | -58.39003 | 6429 ft | 285 kts | 27° |
| 2026-05-03 21:20 | -34.40751 | -58.37734 | 6616 ft | 309 kts | 27° |
| 2026-05-03 21:20 | -34.38832 | -58.36418 | 6992 ft | 318 kts | 20° |
| 2026-05-03 21:21 | -34.37448 | -58.35924 | 7507 ft | 311 kts | 1° |
| 2026-05-03 21:21 | -34.35377 | -58.36305 | 8286 ft | 299 kts | 331° |
| 2026-05-03 21:21 | -34.33674 | -58.37681 | 9109 ft | 292 kts | 321° |
| 2026-05-03 21:21 | -34.32055 | -58.39152 | 9915 ft | 290 kts | 320° |
| 2026-05-03 21:22 | -34.30446 | -58.40611 | 10654 ft | 288 kts | 320° |
| 2026-05-03 21:22 | -34.28847 | -58.42044 | 11402 ft | 284 kts | 320° |
| 2026-05-03 21:22 | -34.27264 | -58.43448 | 12164 ft | 280 kts | 320° |
| 2026-05-03 21:22 | -34.25697 | -58.44822 | 12937 ft | 276 kts | 320° |